sensor_id;sensor_type;location;lat;lon;timestamp;pressure;altitude;pressure_sealevel;temperature;humidity
76519;BME280;67029;51.054;13.798;2024-02-14T00:01:29;100802.80;;;7.75;52.17
76519;BME280;67029;51.054;13.798;2024-02-14T00:03:59;100806.85;;;7.77;52.21
76519;BME280;67029;51.054;13.798;2024-02-14T00:06:29;100803.16;;;7.77;52.18
76519;BME280;67029;51.054;13.798;2024-02-14T00:08:59;100803.06;;;7.75;52.18
76519;BME280;67029;51.054;13.798;2024-02-14T00:11:29;100795.57;;;7.75;52.20
76519;BME280;67029;51.054;13.798;2024-02-14T00:13:59;100796.33;;;7.72;52.24
76519;BME280;67029;51.054;13.798;2024-02-14T00:16:29;100796.11;;;7.67;52.30
76519;BME280;67029;51.054;13.798;2024-02-14T00:18:59;100795.53;;;7.66;52.47
76519;BME280;67029;51.054;13.798;2024-02-14T00:21:29;100796.31;;;7.70;52.54
76519;BME280;67029;51.054;13.798;2024-02-14T00:24:00;100795.62;;;7.68;52.39
76519;BME280;67029;51.054;13.798;2024-02-14T00:26:30;100799.17;;;7.71;52.56
76519;BME280;67029;51.054;13.798;2024-02-14T00:29:00;100798.33;;;7.71;52.38
76519;BME280;67029;51.054;13.798;2024-02-14T00:31:30;100789.65;;;7.42;52.86
76519;BME280;67029;51.054;13.798;2024-02-14T00:34:00;100799.42;;;7.31;53.23
76519;BME280;67029;51.054;13.798;2024-02-14T00:36:30;100793.26;;;7.39;53.25
76519;BME280;67029;51.054;13.798;2024-02-14T00:39:00;100786.66;;;7.48;53.09
76519;BME280;67029;51.054;13.798;2024-02-14T00:41:30;100786.55;;;7.56;53.09
76519;BME280;67029;51.054;13.798;2024-02-14T00:44:01;100785.50;;;7.65;53.04
76519;BME280;67029;51.054;13.798;2024-02-14T00:46:31;100790.08;;;7.71;52.90
76519;BME280;67029;51.054;13.798;2024-02-14T00:49:01;100794.62;;;7.74;52.74
76519;BME280;67029;51.054;13.798;2024-02-14T00:51:31;100792.49;;;7.78;52.73
76519;BME280;67029;51.054;13.798;2024-02-14T00:54:01;100798.03;;;7.76;52.62
76519;BME280;67029;51.054;13.798;2024-02-14T00:56:31;100793.56;;;7.80;52.65
76519;BME280;67029;51.054;13.798;2024-02-14T00:59:01;100800.24;;;7.83;52.66
76519;BME280;67029;51.054;13.798;2024-02-14T01:01:31;100797.50;;;7.87;52.57
76519;BME280;67029;51.054;13.798;2024-02-14T01:04:01;100803.80;;;7.90;52.62
76519;BME280;67029;51.054;13.798;2024-02-14T01:06:31;100797.84;;;7.94;52.51
76519;BME280;67029;51.054;13.798;2024-02-14T01:09:01;100793.73;;;7.97;52.46
76519;BME280;67029;51.054;13.798;2024-02-14T01:11:31;100789.14;;;8.02;52.48
76519;BME280;67029;51.054;13.798;2024-02-14T01:14:01;100782.75;;;8.02;52.39
76519;BME280;67029;51.054;13.798;2024-02-14T01:16:31;100791.55;;;7.99;52.40
76519;BME280;67029;51.054;13.798;2024-02-14T01:19:02;100790.62;;;7.95;52.42
76519;BME280;67029;51.054;13.798;2024-02-14T01:21:32;100785.76;;;7.97;52.39
76519;BME280;67029;51.054;13.798;2024-02-14T01:24:03;100784.41;;;8.00;52.35
76519;BME280;67029;51.054;13.798;2024-02-14T01:26:33;100785.09;;;7.97;52.30
76519;BME280;67029;51.054;13.798;2024-02-14T01:29:03;100785.77;;;7.97;52.27
76519;BME280;67029;51.054;13.798;2024-02-14T01:31:33;100790.29;;;7.98;52.28
76519;BME280;67029;51.054;13.798;2024-02-14T01:34:03;100784.91;;;8.00;52.23
76519;BME280;67029;51.054;13.798;2024-02-14T01:36:33;100786.20;;;8.01;52.25
76519;BME280;67029;51.054;13.798;2024-02-14T01:39:03;100787.20;;;8.03;52.23
76519;BME280;67029;51.054;13.798;2024-02-14T01:41:33;100782.66;;;8.02;52.22
76519;BME280;67029;51.054;13.798;2024-02-14T01:44:04;100784.25;;;7.97;52.27
76519;BME280;67029;51.054;13.798;2024-02-14T01:46:34;100784.07;;;7.98;52.23
76519;BME280;67029;51.054;13.798;2024-02-14T01:49:04;100784.14;;;7.99;52.20
76519;BME280;67029;51.054;13.798;2024-02-14T01:51:35;100779.44;;;7.99;52.06
76519;BME280;67029;51.054;13.798;2024-02-14T01:54:04;100777.62;;;7.86;52.38
76519;BME280;67029;51.054;13.798;2024-02-14T01:56:35;100779.52;;;7.80;52.47
76519;BME280;67029;51.054;13.798;2024-02-14T01:59:05;100771.80;;;7.78;52.34
76519;BME280;67029;51.054;13.798;2024-02-14T02:01:35;100769.48;;;7.75;52.34
76519;BME280;67029;51.054;13.798;2024-02-14T02:04:05;100771.17;;;7.73;52.46
76519;BME280;67029;51.054;13.798;2024-02-14T02:06:35;100764.62;;;7.74;52.44
76519;BME280;67029;51.054;13.798;2024-02-14T02:09:05;100767.91;;;7.79;52.42
76519;BME280;67029;51.054;13.798;2024-02-14T02:11:51;100765.14;;;7.76;52.51
76519;BME280;67029;51.054;13.798;2024-02-14T02:14:06;100760.98;;;7.73;52.49
76519;BME280;67029;51.054;13.798;2024-02-14T02:16:36;100769.81;;;7.74;52.38
76519;BME280;67029;51.054;13.798;2024-02-14T02:19:06;100770.64;;;7.69;52.43
76519;BME280;67029;51.054;13.798;2024-02-14T02:21:36;100774.45;;;7.70;52.43
76519;BME280;67029;51.054;13.798;2024-02-14T02:24:06;100768.26;;;7.65;52.34
76519;BME280;67029;51.054;13.798;2024-02-14T02:26:36;100776.14;;;7.57;52.45
76519;BME280;67029;51.054;13.798;2024-02-14T02:29:06;100772.36;;;7.46;52.55
76519;BME280;67029;51.054;13.798;2024-02-14T02:31:36;100772.28;;;7.46;52.74
76519;BME280;67029;51.054;13.798;2024-02-14T02:34:06;100768.34;;;7.51;52.77
76519;BME280;67029;51.054;13.798;2024-02-14T02:36:37;100762.66;;;7.42;52.70
76519;BME280;67029;51.054;13.798;2024-02-14T02:39:07;100760.48;;;7.30;52.82
76519;BME280;67029;51.054;13.798;2024-02-14T02:41:36;100758.28;;;7.28;53.09
76519;BME280;67029;51.054;13.798;2024-02-14T02:44:07;100757.62;;;7.32;52.99
76519;BME280;67029;51.054;13.798;2024-02-14T02:46:37;100755.91;;;7.38;53.02
76519;BME280;67029;51.054;13.798;2024-02-14T02:49:07;100753.28;;;7.45;52.87
76519;BME280;67029;51.054;13.798;2024-02-14T02:51:37;100754.03;;;7.49;52.80
76519;BME280;67029;51.054;13.798;2024-02-14T02:54:07;100755.59;;;7.51;52.72
76519;BME280;67029;51.054;13.798;2024-02-14T02:56:37;100752.24;;;7.56;52.81
76519;BME280;67029;51.054;13.798;2024-02-14T02:59:07;100753.23;;;7.54;52.63
76519;BME280;67029;51.054;13.798;2024-02-14T03:01:37;100744.22;;;7.53;52.72
76519;BME280;67029;51.054;13.798;2024-02-14T03:04:07;100738.92;;;7.53;52.71
76519;BME280;67029;51.054;13.798;2024-02-14T03:06:37;100739.97;;;7.41;52.90
76519;BME280;67029;51.054;13.798;2024-02-14T03:09:07;100736.50;;;7.41;52.90
76519;BME280;67029;51.054;13.798;2024-02-14T03:11:37;100734.50;;;7.42;52.91
76519;BME280;67029;51.054;13.798;2024-02-14T03:14:07;100728.00;;;7.52;53.08
76519;BME280;67029;51.054;13.798;2024-02-14T03:16:37;100731.30;;;7.54;52.79
76519;BME280;67029;51.054;13.798;2024-02-14T03:19:07;100732.98;;;7.59;52.72
76519;BME280;67029;51.054;13.798;2024-02-14T03:21:37;100733.05;;;7.55;52.84
76519;BME280;67029;51.054;13.798;2024-02-14T03:24:07;100731.80;;;7.59;52.80
76519;BME280;67029;51.054;13.798;2024-02-14T03:26:37;100731.00;;;7.65;52.77
76519;BME280;67029;51.054;13.798;2024-02-14T03:29:07;100731.88;;;7.71;52.70
76519;BME280;67029;51.054;13.798;2024-02-14T03:31:37;100730.19;;;7.74;52.61
76519;BME280;67029;51.054;13.798;2024-02-14T03:34:07;100736.02;;;7.78;52.51
76519;BME280;67029;51.054;13.798;2024-02-14T03:36:37;100727.66;;;7.69;52.49
76519;BME280;67029;51.054;13.798;2024-02-14T03:39:07;100732.20;;;7.53;52.74
76519;BME280;67029;51.054;13.798;2024-02-14T03:41:37;100730.92;;;7.51;52.91
76519;BME280;67029;51.054;13.798;2024-02-14T03:44:07;100729.14;;;7.46;53.04
76519;BME280;67029;51.054;13.798;2024-02-14T03:46:37;100733.59;;;7.46;53.04
76519;BME280;67029;51.054;13.798;2024-02-14T03:49:07;100728.58;;;7.36;53.32
76519;BME280;67029;51.054;13.798;2024-02-14T03:51:37;100726.41;;;7.38;53.29
76519;BME280;67029;51.054;13.798;2024-02-14T03:54:07;100722.11;;;7.35;53.42
76519;BME280;67029;51.054;13.798;2024-02-14T03:56:37;100729.01;;;7.23;53.54
76519;BME280;67029;51.054;13.798;2024-02-14T03:59:07;100727.44;;;7.26;53.61
76519;BME280;67029;51.054;13.798;2024-02-14T04:01:38;100727.05;;;7.22;53.78
76519;BME280;67029;51.054;13.798;2024-02-14T04:04:08;100723.53;;;7.09;54.22
76519;BME280;67029;51.054;13.798;2024-02-14T04:06:38;100714.59;;;7.17;54.04
76519;BME280;67029;51.054;13.798;2024-02-14T04:09:08;100720.64;;;7.17;54.01
76519;BME280;67029;51.054;13.798;2024-02-14T04:11:38;100713.70;;;7.24;53.95
76519;BME280;67029;51.054;13.798;2024-02-14T04:14:08;100707.42;;;7.25;53.98
76519;BME280;67029;51.054;13.798;2024-02-14T04:16:38;100705.91;;;7.25;53.97
76519;BME280;67029;51.054;13.798;2024-02-14T04:19:08;100708.86;;;7.30;54.09
76519;BME280;67029;51.054;13.798;2024-02-14T04:21:38;100701.20;;;7.39;53.76
76519;BME280;67029;51.054;13.798;2024-02-14T04:24:08;100705.03;;;7.51;53.61
76519;BME280;67029;51.054;13.798;2024-02-14T04:26:38;100702.56;;;7.60;53.43
76519;BME280;67029;51.054;13.798;2024-02-14T04:29:08;100698.47;;;7.67;53.26
76519;BME280;67029;51.054;13.798;2024-02-14T04:31:38;100701.14;;;7.63;53.27
76519;BME280;67029;51.054;13.798;2024-02-14T04:34:08;100703.06;;;7.58;53.54
76519;BME280;67029;51.054;13.798;2024-02-14T04:36:38;100704.81;;;7.55;53.36
76519;BME280;67029;51.054;13.798;2024-02-14T04:39:08;100703.31;;;7.57;53.41
76519;BME280;67029;51.054;13.798;2024-02-14T04:41:38;100709.55;;;7.65;53.33
76519;BME280;67029;51.054;13.798;2024-02-14T04:44:08;100703.45;;;7.72;53.17
76519;BME280;67029;51.054;13.798;2024-02-14T04:46:38;100704.75;;;7.78;53.05
76519;BME280;67029;51.054;13.798;2024-02-14T04:49:08;100699.98;;;7.84;52.95
76519;BME280;67029;51.054;13.798;2024-02-14T04:51:38;100700.48;;;7.86;52.80
76519;BME280;67029;51.054;13.798;2024-02-14T04:54:08;100699.62;;;7.88;52.78
76519;BME280;67029;51.054;13.798;2024-02-14T04:56:38;100701.33;;;7.89;52.69
76519;BME280;67029;51.054;13.798;2024-02-14T04:59:08;100696.62;;;7.89;52.66
76519;BME280;67029;51.054;13.798;2024-02-14T05:01:38;100694.08;;;7.93;52.60
76519;BME280;67029;51.054;13.798;2024-02-14T05:04:08;100694.25;;;7.95;52.54
76519;BME280;67029;51.054;13.798;2024-02-14T05:06:38;100694.36;;;7.98;52.52
76519;BME280;67029;51.054;13.798;2024-02-14T05:09:08;100694.28;;;7.98;52.49
76519;BME280;67029;51.054;13.798;2024-02-14T05:11:38;100696.03;;;7.96;52.39
76519;BME280;67029;51.054;13.798;2024-02-14T05:14:08;100697.23;;;7.95;52.56
76519;BME280;67029;51.054;13.798;2024-02-14T05:16:38;100700.73;;;7.90;52.39
76519;BME280;67029;51.054;13.798;2024-02-14T05:19:08;100701.98;;;7.88;52.51
76519;BME280;67029;51.054;13.798;2024-02-14T05:21:38;100701.73;;;7.85;52.47
76519;BME280;67029;51.054;13.798;2024-02-14T05:24:08;100702.05;;;7.82;52.67
76519;BME280;67029;51.054;13.798;2024-02-14T05:26:38;100699.58;;;7.70;52.73
76519;BME280;67029;51.054;13.798;2024-02-14T05:29:08;100698.73;;;7.73;52.83
76519;BME280;67029;51.054;13.798;2024-02-14T05:31:46;100695.16;;;7.61;53.05
76519;BME280;67029;51.054;13.798;2024-02-14T05:34:09;100694.66;;;7.62;53.02
76519;BME280;67029;51.054;13.798;2024-02-14T05:36:39;100696.35;;;7.67;53.10
76519;BME280;67029;51.054;13.798;2024-02-14T05:39:09;100691.87;;;7.55;53.21
76519;BME280;67029;51.054;13.798;2024-02-14T05:41:39;100692.34;;;7.53;53.36
76519;BME280;67029;51.054;13.798;2024-02-14T05:44:09;100687.02;;;7.59;53.42
76519;BME280;67029;51.054;13.798;2024-02-14T05:46:39;100682.47;;;7.65;53.33
76519;BME280;67029;51.054;13.798;2024-02-14T05:49:09;100680.44;;;7.66;53.22
76519;BME280;67029;51.054;13.798;2024-02-14T05:51:39;100677.09;;;7.65;53.25
76519;BME280;67029;51.054;13.798;2024-02-14T05:54:09;100679.75;;;7.38;54.20
76519;BME280;67029;51.054;13.798;2024-02-14T05:56:39;100674.08;;;7.31;54.15
76519;BME280;67029;51.054;13.798;2024-02-14T05:59:09;100670.07;;;7.35;54.20
76519;BME280;67029;51.054;13.798;2024-02-14T06:01:39;100671.12;;;7.44;54.19
76519;BME280;67029;51.054;13.798;2024-02-14T06:04:09;100669.25;;;7.42;54.25
76519;BME280;67029;51.054;13.798;2024-02-14T06:06:39;100662.41;;;7.54;54.17
76519;BME280;67029;51.054;13.798;2024-02-14T06:09:09;100663.89;;;7.67;54.03
76519;BME280;67029;51.054;13.798;2024-02-14T06:11:39;100661.66;;;7.74;53.79
76519;BME280;67029;51.054;13.798;2024-02-14T06:14:09;100656.80;;;7.81;53.75
76519;BME280;67029;51.054;13.798;2024-02-14T06:16:39;100663.44;;;7.79;53.77
76519;BME280;67029;51.054;13.798;2024-02-14T06:19:09;100664.72;;;7.85;53.64
76519;BME280;67029;51.054;13.798;2024-02-14T06:21:39;100668.43;;;7.89;53.57
76519;BME280;67029;51.054;13.798;2024-02-14T06:24:09;100672.88;;;7.89;53.52
76519;BME280;67029;51.054;13.798;2024-02-14T06:26:40;100675.06;;;7.90;53.48
76519;BME280;67029;51.054;13.798;2024-02-14T06:29:10;100675.51;;;7.91;53.58
76519;BME280;67029;51.054;13.798;2024-02-14T06:31:39;100679.82;;;7.99;53.52
76519;BME280;67029;51.054;13.798;2024-02-14T06:34:10;100679.66;;;8.03;53.43
76519;BME280;67029;51.054;13.798;2024-02-14T06:36:39;100681.12;;;7.95;53.55
76519;BME280;67029;51.054;13.798;2024-02-14T06:39:10;100688.09;;;7.81;54.01
76519;BME280;67029;51.054;13.798;2024-02-14T06:41:40;100684.95;;;7.73;54.21
76519;BME280;67029;51.054;13.798;2024-02-14T06:44:10;100686.32;;;7.81;54.14
76519;BME280;67029;51.054;13.798;2024-02-14T06:46:40;100687.03;;;7.92;54.01
76519;BME280;67029;51.054;13.798;2024-02-14T06:49:10;100689.36;;;7.86;54.10
76519;BME280;67029;51.054;13.798;2024-02-14T06:51:40;100685.44;;;7.96;54.00
76519;BME280;67029;51.054;13.798;2024-02-14T06:54:10;100688.09;;;8.09;53.80
76519;BME280;67029;51.054;13.798;2024-02-14T06:56:43;100696.60;;;8.21;53.60
76519;BME280;67029;51.054;13.798;2024-02-14T06:59:11;100693.17;;;8.29;53.57
76519;BME280;67029;51.054;13.798;2024-02-14T07:01:41;100691.49;;;8.33;53.57
76519;BME280;67029;51.054;13.798;2024-02-14T07:04:11;100690.07;;;8.37;53.60
76519;BME280;67029;51.054;13.798;2024-02-14T07:06:41;100685.94;;;8.40;53.73
76519;BME280;67029;51.054;13.798;2024-02-14T07:09:11;100680.50;;;8.46;53.76
76519;BME280;67029;51.054;13.798;2024-02-14T07:11:41;100676.67;;;8.33;53.96
76519;BME280;67029;51.054;13.798;2024-02-14T07:14:11;100679.66;;;8.13;54.35
76519;BME280;67029;51.054;13.798;2024-02-14T07:16:41;100671.33;;;8.06;54.63
76519;BME280;67029;51.054;13.798;2024-02-14T07:19:11;100671.57;;;8.07;54.85
76519;BME280;67029;51.054;13.798;2024-02-14T07:21:41;100667.95;;;7.97;55.12
76519;BME280;67029;51.054;13.798;2024-02-14T07:24:11;100665.09;;;7.97;55.11
76519;BME280;67029;51.054;13.798;2024-02-14T07:26:41;100663.08;;;8.06;55.10
76519;BME280;67029;51.054;13.798;2024-02-14T07:29:11;100661.92;;;8.14;55.10
76519;BME280;67029;51.054;13.798;2024-02-14T07:31:41;100660.93;;;8.29;54.98
76519;BME280;67029;51.054;13.798;2024-02-14T07:34:11;100660.39;;;8.43;54.80
76519;BME280;67029;51.054;13.798;2024-02-14T07:36:41;100653.64;;;8.47;54.53
76519;BME280;67029;51.054;13.798;2024-02-14T07:39:11;100657.78;;;8.47;54.74
76519;BME280;67029;51.054;13.798;2024-02-14T07:41:41;100662.91;;;8.60;54.58
76519;BME280;67029;51.054;13.798;2024-02-14T07:44:11;100657.08;;;8.61;54.41
76519;BME280;67029;51.054;13.798;2024-02-14T07:46:41;100652.87;;;8.79;54.15
76519;BME280;67029;51.054;13.798;2024-02-14T07:49:11;100650.02;;;8.84;53.96
76519;BME280;67029;51.054;13.798;2024-02-14T07:51:41;100645.17;;;8.90;53.77
76519;BME280;67029;51.054;13.798;2024-02-14T07:54:11;100645.91;;;9.00;53.69
76519;BME280;67029;51.054;13.798;2024-02-14T07:56:41;100637.05;;;9.08;53.53
76519;BME280;67029;51.054;13.798;2024-02-14T07:59:12;100640.86;;;9.04;53.47
76519;BME280;67029;51.054;13.798;2024-02-14T08:01:42;100636.10;;;9.16;53.58
76519;BME280;67029;51.054;13.798;2024-02-14T08:04:12;100630.56;;;9.37;53.25
76519;BME280;67029;51.054;13.798;2024-02-14T08:06:42;100622.31;;;9.53;52.86
76519;BME280;67029;51.054;13.798;2024-02-14T08:09:12;100623.05;;;9.57;52.58
76519;BME280;67029;51.054;13.798;2024-02-14T08:11:42;100619.13;;;9.65;52.50
76519;BME280;67029;51.054;13.798;2024-02-14T08:14:12;100613.33;;;9.61;52.30
76519;BME280;67029;51.054;13.798;2024-02-14T08:16:42;100622.49;;;9.49;52.70
76519;BME280;67029;51.054;13.798;2024-02-14T08:19:12;100624.73;;;9.58;52.66
76519;BME280;67029;51.054;13.798;2024-02-14T08:21:42;100624.33;;;9.67;52.62
76519;BME280;67029;51.054;13.798;2024-02-14T08:24:12;100629.44;;;9.63;52.19
76519;BME280;67029;51.054;13.798;2024-02-14T08:26:42;100619.00;;;9.74;52.47
76519;BME280;67029;51.054;13.798;2024-02-14T08:29:12;100613.47;;;9.84;52.08
76519;BME280;67029;51.054;13.798;2024-02-14T08:31:42;100625.08;;;9.90;52.19
76519;BME280;67029;51.054;13.798;2024-02-14T08:34:12;100624.44;;;9.94;52.03
76519;BME280;67029;51.054;13.798;2024-02-14T08:36:42;100616.57;;;9.99;51.66
76519;BME280;67029;51.054;13.798;2024-02-14T08:39:12;100611.20;;;9.95;51.85
76519;BME280;67029;51.054;13.798;2024-02-14T08:41:43;100603.25;;;9.94;51.95
76519;BME280;67029;51.054;13.798;2024-02-14T08:44:15;100596.09;;;9.94;52.13
76519;BME280;67029;51.054;13.798;2024-02-14T08:46:43;100592.98;;;10.02;51.96
76519;BME280;67029;51.054;13.798;2024-02-14T08:49:13;100598.77;;;10.18;51.75
76519;BME280;67029;51.054;13.798;2024-02-14T08:51:43;100598.00;;;10.19;51.89
76519;BME280;67029;51.054;13.798;2024-02-14T08:54:13;100597.28;;;10.16;51.70
76519;BME280;67029;51.054;13.798;2024-02-14T08:56:43;100603.49;;;10.21;51.89
76519;BME280;67029;51.054;13.798;2024-02-14T08:59:13;100607.06;;;10.44;51.51
76519;BME280;67029;51.054;13.798;2024-02-14T09:01:43;100604.16;;;10.56;51.30
76519;BME280;67029;51.054;13.798;2024-02-14T09:04:14;100602.11;;;10.66;51.09
76519;BME280;67029;51.054;13.798;2024-02-14T09:06:43;100609.02;;;10.77;51.12
76519;BME280;67029;51.054;13.798;2024-02-14T09:09:13;100607.55;;;10.90;50.69
76519;BME280;67029;51.054;13.798;2024-02-14T09:11:44;100600.12;;;10.88;50.64
76519;BME280;67029;51.054;13.798;2024-02-14T09:14:13;100592.00;;;10.98;50.63
76519;BME280;67029;51.054;13.798;2024-02-14T09:16:43;100599.20;;;11.10;50.35
76519;BME280;67029;51.054;13.798;2024-02-14T09:19:14;100601.62;;;11.12;50.36
76519;BME280;67029;51.054;13.798;2024-02-14T09:21:44;100597.30;;;11.13;50.32
76519;BME280;67029;51.054;13.798;2024-02-14T09:24:14;100597.78;;;11.16;50.35
76519;BME280;67029;51.054;13.798;2024-02-14T09:26:44;100609.88;;;11.38;50.07
76519;BME280;67029;51.054;13.798;2024-02-14T09:29:14;100607.56;;;11.48;50.04
76519;BME280;67029;51.054;13.798;2024-02-14T09:31:44;100605.61;;;11.66;49.81
76519;BME280;67029;51.054;13.798;2024-02-14T09:34:14;100607.05;;;11.85;49.41
76519;BME280;67029;51.054;13.798;2024-02-14T09:36:44;100606.61;;;11.89;49.30
76519;BME280;67029;51.054;13.798;2024-02-14T09:39:14;100608.65;;;11.86;49.41
76519;BME280;67029;51.054;13.798;2024-02-14T09:41:46;100608.34;;;11.79;49.37
76519;BME280;67029;51.054;13.798;2024-02-14T09:44:14;100607.63;;;11.72;49.32
76519;BME280;67029;51.054;13.798;2024-02-14T09:46:45;100611.36;;;11.66;49.69
76519;BME280;67029;51.054;13.798;2024-02-14T09:49:16;100615.31;;;11.86;49.72
76519;BME280;67029;51.054;13.798;2024-02-14T09:51:49;100615.14;;;12.01;49.34
76519;BME280;67029;51.054;13.798;2024-02-14T09:54:17;100607.23;;;11.91;49.23
76519;BME280;67029;51.054;13.798;2024-02-14T09:56:50;100609.33;;;11.92;49.25
76519;BME280;67029;51.054;13.798;2024-02-14T09:59:18;100607.70;;;11.95;49.43
76519;BME280;67029;51.054;13.798;2024-02-14T10:01:48;100609.03;;;12.07;49.11
76519;BME280;67029;51.054;13.798;2024-02-14T10:04:19;100606.08;;;12.02;49.16
76519;BME280;67029;51.054;13.798;2024-02-14T10:06:49;100603.84;;;12.10;49.31
76519;BME280;67029;51.054;13.798;2024-02-14T10:09:22;100607.22;;;12.27;49.23
76519;BME280;67029;51.054;13.798;2024-02-14T10:11:49;100613.06;;;12.46;48.92
76519;BME280;67029;51.054;13.798;2024-02-14T10:14:19;100612.19;;;12.63;48.49
76519;BME280;67029;51.054;13.798;2024-02-14T10:16:49;100612.88;;;12.62;48.33
76519;BME280;67029;51.054;13.798;2024-02-14T10:19:19;100617.27;;;12.53;48.34
76519;BME280;67029;51.054;13.798;2024-02-14T10:21:55;100611.67;;;12.59;48.44
76519;BME280;67029;51.054;13.798;2024-02-14T10:24:19;100616.70;;;12.76;48.34
76519;BME280;67029;51.054;13.798;2024-02-14T10:26:49;100609.22;;;12.87;48.15
76519;BME280;67029;51.054;13.798;2024-02-14T10:29:22;100613.54;;;12.96;47.91
76519;BME280;67029;51.054;13.798;2024-02-14T10:31:50;100608.94;;;13.01;47.61
76519;BME280;67029;51.054;13.798;2024-02-14T10:34:24;100608.78;;;13.06;47.53
76519;BME280;67029;51.054;13.798;2024-02-14T10:36:52;100605.20;;;13.11;47.62
76519;BME280;67029;51.054;13.798;2024-02-14T10:39:21;100606.34;;;13.13;47.70
76519;BME280;67029;51.054;13.798;2024-02-14T10:41:52;100605.22;;;13.13;47.78
76519;BME280;67029;51.054;13.798;2024-02-14T10:44:22;100611.09;;;13.17;47.72
76519;BME280;67029;51.054;13.798;2024-02-14T10:46:52;100607.23;;;13.19;47.75
76519;BME280;67029;51.054;13.798;2024-02-14T10:49:27;100601.70;;;13.20;47.67
76519;BME280;67029;51.054;13.798;2024-02-14T10:51:54;100600.72;;;13.02;47.60
76519;BME280;67029;51.054;13.798;2024-02-14T10:54:24;100598.03;;;12.95;48.08
76519;BME280;67029;51.054;13.798;2024-02-14T10:56:58;100594.37;;;13.01;48.12
76519;BME280;67029;51.054;13.798;2024-02-14T10:59:26;100593.06;;;13.08;48.02
76519;BME280;67029;51.054;13.798;2024-02-14T11:01:56;100597.85;;;13.04;48.10
76519;BME280;67029;51.054;13.798;2024-02-14T11:04:26;100596.52;;;13.12;48.14
76519;BME280;67029;51.054;13.798;2024-02-14T11:06:58;100590.86;;;13.20;48.01
76519;BME280;67029;51.054;13.798;2024-02-14T11:09:32;100590.69;;;13.29;47.94
76519;BME280;67029;51.054;13.798;2024-02-14T11:12:03;100584.80;;;13.39;47.91
76519;BME280;67029;51.054;13.798;2024-02-14T11:14:29;100582.59;;;13.48;47.82
76519;BME280;67029;51.054;13.798;2024-02-14T11:16:59;100575.62;;;13.56;47.63
76519;BME280;67029;51.054;13.798;2024-02-14T11:19:31;100573.88;;;13.62;47.42
76519;BME280;67029;51.054;13.798;2024-02-14T11:21:58;100585.38;;;13.67;47.46
76519;BME280;67029;51.054;13.798;2024-02-14T11:24:28;100584.16;;;13.70;47.62
76519;BME280;67029;51.054;13.798;2024-02-14T11:27:02;100577.48;;;13.75;47.63
76519;BME280;67029;51.054;13.798;2024-02-14T11:29:29;100574.51;;;13.82;47.66
76519;BME280;67029;51.054;13.798;2024-02-14T11:32:00;100568.05;;;13.90;47.64
76519;BME280;67029;51.054;13.798;2024-02-14T11:34:30;100568.80;;;13.99;47.66
76519;BME280;67029;51.054;13.798;2024-02-14T11:37:00;100566.28;;;14.07;47.68
76519;BME280;67029;51.054;13.798;2024-02-14T11:39:30;100574.80;;;14.17;47.69
76519;BME280;67029;51.054;13.798;2024-02-14T11:42:00;100568.44;;;14.27;47.68
76519;BME280;67029;51.054;13.798;2024-02-14T11:44:30;100574.52;;;14.38;47.65
76519;BME280;67029;51.054;13.798;2024-02-14T11:47:00;100563.39;;;14.49;47.55
76519;BME280;67029;51.054;13.798;2024-02-14T11:49:30;100562.27;;;14.60;47.46
76519;BME280;67029;51.054;13.798;2024-02-14T11:52:00;100561.88;;;14.71;47.39
76519;BME280;67029;51.054;13.798;2024-02-14T11:54:30;100564.50;;;14.82;47.27
76519;BME280;67029;51.054;13.798;2024-02-14T11:57:00;100569.78;;;14.91;47.09
76519;BME280;67029;51.054;13.798;2024-02-14T11:59:30;100572.64;;;14.79;47.03
76519;BME280;67029;51.054;13.798;2024-02-14T12:02:00;100576.05;;;14.56;47.25
76519;BME280;67029;51.054;13.798;2024-02-14T12:04:31;100573.05;;;14.57;47.40
76519;BME280;67029;51.054;13.798;2024-02-14T12:07:02;100576.16;;;14.72;47.05
76519;BME280;67029;51.054;13.798;2024-02-14T12:09:32;100572.48;;;14.82;46.99
76519;BME280;67029;51.054;13.798;2024-02-14T12:12:02;100578.55;;;14.90;46.69
76519;BME280;67029;51.054;13.798;2024-02-14T12:14:32;100582.64;;;14.77;46.54
76519;BME280;67029;51.054;13.798;2024-02-14T12:17:03;100580.47;;;14.60;46.86
76519;BME280;67029;51.054;13.798;2024-02-14T12:19:33;100574.67;;;14.52;47.10
76519;BME280;67029;51.054;13.798;2024-02-14T12:22:09;100570.31;;;14.58;47.13
76519;BME280;67029;51.054;13.798;2024-02-14T12:24:35;100574.05;;;14.64;47.02
76519;BME280;67029;51.054;13.798;2024-02-14T12:27:04;100575.94;;;14.67;47.13
76519;BME280;67029;51.054;13.798;2024-02-14T12:29:35;100574.54;;;14.71;47.19
76519;BME280;67029;51.054;13.798;2024-02-14T12:32:06;100573.12;;;14.71;47.37
76519;BME280;67029;51.054;13.798;2024-02-14T12:34:37;100571.84;;;14.74;47.50
76519;BME280;67029;51.054;13.798;2024-02-14T12:37:06;100568.37;;;14.79;47.57
76519;BME280;67029;51.054;13.798;2024-02-14T12:39:36;100570.66;;;14.77;47.73
76519;BME280;67029;51.054;13.798;2024-02-14T12:42:06;100572.84;;;14.77;47.86
76519;BME280;67029;51.054;13.798;2024-02-14T12:44:36;100567.32;;;14.71;48.21
76519;BME280;67029;51.054;13.798;2024-02-14T12:47:06;100565.26;;;14.69;48.60
76519;BME280;67029;51.054;13.798;2024-02-14T12:49:36;100561.44;;;14.71;48.74
76519;BME280;67029;51.054;13.798;2024-02-14T12:52:06;100565.62;;;14.74;48.80
76519;BME280;67029;51.054;13.798;2024-02-14T12:54:36;100562.34;;;14.79;48.89
76519;BME280;67029;51.054;13.798;2024-02-14T12:57:06;100571.66;;;14.87;48.92
76519;BME280;67029;51.054;13.798;2024-02-14T12:59:37;100566.45;;;14.88;49.07
76519;BME280;67029;51.054;13.798;2024-02-14T13:02:07;100562.88;;;14.88;49.10